Time;durP1;ratioP1;P1;durP2;ratioP2;P2;SDS_P1;SDS_P2;PMS_P1;PMS_P2;Temp;Humidity;BMP_temperature;BMP_pressure;BME280_temperature;BME280_humidity;BME280_pressure;Samples;Min_cycle;Max_cycle;Signal;HPM_P1;HPM_P2
2021/05/21 00:00:00;;;;;;;0.10;0.10;;;10.90;97.90;;;;;;6152181;23;20016;-83
2021/05/21 00:02:26;;;;;;;0.20;0.20;;;10.90;97.90;;;;;;6149926;23;20089;-82
2021/05/21 00:04:52;;;;;;;0.20;0.20;;;10.80;98.00;;;;;;6152144;23;20005;-83
2021/05/21 00:07:18;;;;;;;0.20;0.20;;;10.80;98.00;;;;;;6150629;23;20483;-82
2021/05/21 00:09:43;;;;;;;0.10;0.10;;;10.70;98.30;;;;;;6152224;23;20010;-83
2021/05/21 00:12:09;;;;;;;0.20;0.20;;;10.60;98.50;;;;;;6152384;23;20006;-82
2021/05/21 00:14:35;;;;;;;0.10;0.10;;;10.60;98.20;;;;;;6151795;23;20491;-83
2021/05/21 00:17:01;;;;;;;0.10;0.10;;;10.60;98.20;;;;;;6151794;23;20005;-81
2021/05/21 00:19:27;;;;;;;0.10;0.10;;;10.60;98.60;;;;;;6151872;23;20081;-82
2021/05/21 00:21:53;;;;;;;0.10;0.10;;;10.50;99.10;;;;;;6150554;23;20013;-81
2021/05/21 00:24:18;;;;;;;0.20;0.20;;;10.40;99.20;;;;;;6151194;23;20009;-82
2021/05/21 00:26:44;;;;;;;0.20;0.20;;;10.40;99.10;;;;;;6152593;23;20516;-83
2021/05/21 00:29:10;;;;;;;0.10;0.10;;;10.40;99.40;;;;;;6151201;23;20005;-83
2021/05/21 00:31:35;;;;;;;0.20;0.20;;;10.50;98.70;;;;;;6150521;23;20009;-84
2021/05/21 00:34:01;;;;;;;0.10;0.10;;;10.50;99.20;;;;;;6151935;23;20041;-82
2021/05/21 00:36:27;;;;;;;0.10;0.10;;;10.40;98.70;;;;;;6152124;23;20084;-82
2021/05/21 00:38:52;;;;;;;0.10;0.10;;;10.40;99.20;;;;;;6150680;23;20084;-83
2021/05/21 00:41:22;;;;;;;0.15;0.15;;;10.40;99.00;;;;;;6152066;23;20598;-83
2021/05/21 00:43:51;;;;;;;0.10;0.10;;;10.40;98.90;;;;;;6151757;23;20001;-83
2021/05/21 00:46:17;;;;;;;0.17;0.17;;;10.40;99.00;;;;;;6151525;23;20005;-81
2021/05/21 00:48:42;;;;;;;0.10;0.10;;;10.40;98.80;;;;;;6150897;23;20381;-83
2021/05/21 00:51:08;;;;;;;0.15;0.15;;;10.40;99.00;;;;;;6151011;23;20103;-83
2021/05/21 00:53:34;;;;;;;0.10;0.10;;;10.40;98.70;;;;;;6149687;23;20060;-82
2021/05/21 00:56:01;;;;;;;0.10;0.10;;;10.40;98.60;;;;;;6151384;23;20006;-81
2021/05/21 00:58:27;;;;;;;0.10;0.10;;;10.40;98.70;;;;;;6151111;23;20425;-83
2021/05/21 01:00:55;;;;;;;0.20;0.20;;;10.40;98.60;;;;;;6151833;23;20006;-89
2021/05/21 01:03:21;;;;;;;;;;;10.40;98.30;;;;;;6151102;23;20002;-81
2021/05/21 01:05:46;;;;;;;0.10;0.10;;;10.40;98.30;;;;;;6151050;23;19995;-81
2021/05/21 01:08:14;;;;;;;0.10;0.10;;;10.40;98.40;;;;;;6150203;23;20507;-79
2021/05/21 01:10:40;;;;;;;0.20;0.20;;;10.30;98.60;;;;;;6150531;23;20025;-80
2021/05/21 01:13:06;;;;;;;0.15;0.15;;;10.30;98.50;;;;;;6151301;23;20005;-82
2021/05/21 01:15:37;;;;;;;0.10;0.10;;;10.30;98.70;;;;;;6150501;23;20568;-80
2021/05/21 01:18:05;;;;;;;0.20;0.20;;;10.30;98.70;;;;;;6150332;23;20006;-81
2021/05/21 01:20:31;;;;;;;0.20;0.20;;;10.30;98.40;;;;;;6149028;23;20009;-81
2021/05/21 01:22:57;;;;;;;0.10;0.10;;;10.20;98.20;;;;;;6150249;23;20024;-81
2021/05/21 01:25:23;;;;;;;0.10;0.10;;;10.20;98.10;;;;;;6150745;23;20002;-81
2021/05/21 01:27:51;;;;;;;0.20;0.20;;;10.20;98.10;;;;;;6150594;23;20005;-81
2021/05/21 01:30:17;;;;;;;0.10;0.10;;;10.20;98.40;;;;;;6149225;23;20014;-80
2021/05/21 01:32:48;;;;;;;0.10;0.10;;;10.20;97.80;;;;;;6150183;23;20472;-81
2021/05/21 01:35:18;;;;;;;0.17;0.17;;;10.30;97.90;;;;;;6150038;23;20002;-81
2021/05/21 01:37:45;;;;;;;0.20;0.20;;;10.30;97.90;;;;;;6150414;23;20684;-80
2021/05/21 01:40:12;;;;;;;0.20;0.20;;;10.20;98.00;;;;;;6150247;23;20028;-81
2021/05/21 01:42:38;;;;;;;;;;;10.20;98.40;;;;;;6150600;23;20009;-80
2021/05/21 01:45:07;;;;;;;0.20;0.20;;;10.20;98.50;;;;;;6150261;23;19908;-80
2021/05/21 01:47:33;;;;;;;0.10;0.10;;;10.20;98.00;;;;;;6149686;23;20157;-81
2021/05/21 01:49:59;;;;;;;0.15;0.15;;;10.30;98.30;;;;;;6150118;23;20049;-82
2021/05/21 01:52:25;;;;;;;0.10;0.10;;;10.30;98.10;;;;;;6148338;23;20012;-83
2021/05/21 01:54:51;;;;;;;0.10;0.10;;;10.20;98.70;;;;;;6148774;23;20009;-83
2021/05/21 01:57:16;;;;;;;0.20;0.20;;;10.20;98.70;;;;;;6150413;23;19997;-82
2021/05/21 01:59:42;;;;;;;0.10;0.10;;;10.20;98.30;;;;;;6149935;23;20002;-81
2021/05/21 02:02:10;;;;;;;0.20;0.20;;;10.20;98.40;;;;;;6150034;23;20029;-81
2021/05/21 02:04:38;;;;;;;0.10;0.10;;;10.20;98.00;;;;;;6149777;23;19998;-82
2021/05/21 02:07:11;;;;;;;0.20;0.20;;;10.20;98.20;;;;;;6151695;23;20348;-81
2021/05/21 02:10:00;;;;;;;0.20;0.20;;;10.20;98.10;;;;;;6149787;23;20002;-83
2021/05/21 02:12:26;;;;;;;;;;;10.20;98.00;;;;;;6151362;23;20056;-82
2021/05/21 02:14:53;;;;;;;0.10;0.10;;;10.30;97.70;;;;;;6150507;23;19926;-82
2021/05/21 02:17:19;;;;;;;0.10;0.10;;;10.30;98.00;;;;;;6150367;23;20005;-82
2021/05/21 02:19:45;;;;;;;0.10;0.10;;;10.30;97.60;;;;;;6150825;23;20012;-82
2021/05/21 02:22:12;;;;;;;0.10;0.10;;;10.40;97.70;;;;;;6149948;23;20013;-82
2021/05/21 02:24:38;;;;;;;0.15;0.15;;;10.40;97.60;;;;;;6150256;23;20073;-82
2021/05/21 02:27:04;;;;;;;0.20;0.20;;;10.40;97.60;;;;;;6150081;23;19998;-82
2021/05/21 02:29:29;;;;;;;0.10;0.10;;;10.40;97.90;;;;;;6151005;23;20012;-81
2021/05/21 02:31:55;;;;;;;0.10;0.10;;;10.40;97.20;;;;;;6151081;23;20037;-82
2021/05/21 02:34:21;;;;;;;0.10;0.10;;;10.50;96.80;;;;;;6149947;23;19997;-82
2021/05/21 02:36:47;;;;;;;0.10;0.10;;;10.50;96.40;;;;;;6150974;23;20321;-85
2021/05/21 02:39:13;;;;;;;0.10;0.10;;;10.50;96.50;;;;;;6150086;23;20005;-82
2021/05/21 02:41:39;;;;;;;0.10;0.10;;;10.50;96.40;;;;;;6150037;23;20001;-81
2021/05/21 02:44:04;;;;;;;0.10;0.10;;;10.60;96.40;;;;;;6150003;23;20080;-82
2021/05/21 02:46:30;;;;;;;0.20;0.20;;;10.60;96.00;;;;;;6149890;23;20325;-81
2021/05/21 02:48:56;;;;;;;0.10;0.10;;;10.60;95.70;;;;;;6149976;23;20750;-82
2021/05/21 02:51:22;;;;;;;0.10;0.10;;;10.60;95.40;;;;;;6150220;23;20017;-81
2021/05/21 02:53:47;;;;;;;0.10;0.10;;;10.60;95.00;;;;;;6149599;23;19998;-81
2021/05/21 02:56:13;;;;;;;0.15;0.15;;;10.60;94.80;;;;;;6149977;23;20012;-79
2021/05/21 02:58:39;;;;;;;0.10;0.10;;;10.60;95.00;;;;;;6149395;23;20005;-80
2021/05/21 03:01:05;;;;;;;0.10;0.10;;;10.70;94.60;;;;;;6149945;23;20556;-82
2021/05/21 03:03:30;;;;;;;0.10;0.10;;;10.70;94.70;;;;;;6149385;23;20037;-80
2021/05/21 03:05:56;;;;;;;0.13;0.13;;;10.60;94.70;;;;;;6149538;23;20012;-80
2021/05/21 03:08:23;;;;;;;0.10;0.10;;;10.60;94.50;;;;;;6149764;23;20013;-81
2021/05/21 03:10:49;;;;;;;0.10;0.10;;;10.60;94.30;;;;;;6149835;23;20186;-80
2021/05/21 03:13:15;;;;;;;0.20;0.20;;;10.60;94.90;;;;;;6149540;23;20444;-80
2021/05/21 03:15:44;;;;;;;0.10;0.10;;;10.50;94.80;;;;;;6149844;23;20542;-79
2021/05/21 03:18:14;;;;;;;0.10;0.10;;;10.60;95.10;;;;;;6148887;23;20009;-80
2021/05/21 03:20:43;;;;;;;0.10;0.10;;;10.50;95.00;;;;;;6149656;23;20014;-80
2021/05/21 03:23:09;;;;;;;0.10;0.10;;;10.50;95.10;;;;;;6149084;23;20088;-81
2021/05/21 03:25:36;;;;;;;0.10;0.10;;;10.50;95.60;;;;;;6149721;23;20016;-81
2021/05/21 03:28:02;;;;;;;0.10;0.10;;;10.60;95.30;;;;;;6149158;23;20504;-83
2021/05/21 03:30:28;;;;;;;0.10;0.10;;;10.60;94.80;;;;;;6148304;23;20017;-81
2021/05/21 03:32:54;;;;;;;0.10;0.10;;;10.60;95.00;;;;;;6149676;23;20009;-82
2021/05/21 03:35:19;;;;;;;0.13;0.13;;;10.60;94.90;;;;;;6149989;23;20508;-82
2021/05/21 03:37:45;;;;;;;0.10;0.10;;;10.70;95.10;;;;;;6149174;23;20013;-83
2021/05/21 03:40:11;;;;;;;2.08;0.90;;;10.70;94.40;;;;;;6150563;23;20033;-83
2021/05/21 03:42:37;;;;;;;0.10;0.10;;;10.80;94.50;;;;;;6150032;23;20048;-83
2021/05/21 03:45:05;;;;;;;0.32;0.32;;;10.80;93.90;;;;;;6149027;23;20340;-82
2021/05/21 03:47:33;;;;;;;0.20;0.20;;;10.90;93.90;;;;;;6149365;23;19997;-80
2021/05/21 03:49:58;;;;;;;;;;;11.00;93.10;;;;;;6149591;23;20014;-80
2021/05/21 03:52:25;;;;;;;0.17;0.17;;;11.10;92.70;;;;;;6147165;23;19947;-80
2021/05/21 03:54:50;;;;;;;0.10;0.10;;;11.10;92.50;;;;;;6150675;23;20005;-87
2021/05/21 03:57:16;;;;;;;0.10;0.10;;;11.10;92.30;;;;;;6152812;23;20002;-83
2021/05/21 03:59:42;;;;;;;0.10;0.10;;;11.10;92.30;;;;;;6152390;23;20370;-80
2021/05/21 04:02:10;;;;;;;0.10;0.10;;;11.10;92.20;;;;;;6151159;23;20064;-80
2021/05/21 04:04:36;;;;;;;0.10;0.10;;;11.10;92.20;;;;;;6150709;23;20084;-80
2021/05/21 04:07:02;;;;;;;0.10;0.10;;;11.20;92.30;;;;;;6150961;23;20472;-79
2021/05/21 04:09:30;;;;;;;0.20;0.20;;;11.20;92.40;;;;;;6150922;23;20052;-80
2021/05/21 04:11:56;;;;;;;0.10;0.10;;;11.20;92.20;;;;;;6150829;23;20017;-80
2021/05/21 04:14:22;;;;;;;0.10;0.10;;;11.30;91.80;;;;;;6150742;23;20139;-79
2021/05/21 04:16:47;;;;;;;0.10;0.10;;;11.30;92.10;;;;;;6150917;23;20437;-80
2021/05/21 04:19:13;;;;;;;0.10;0.10;;;11.30;91.80;;;;;;6152261;23;20006;-81
2021/05/21 04:21:39;;;;;;;0.10;0.10;;;11.40;91.80;;;;;;6151089;23;20009;-80
2021/05/21 04:24:06;;;;;;;0.13;0.13;;;11.40;91.50;;;;;;6150624;23;20001;-78
2021/05/21 04:26:31;;;;;;;0.10;0.10;;;11.50;91.30;;;;;;6149033;23;20036;-80
2021/05/21 04:28:57;;;;;;;0.10;0.10;;;11.60;90.80;;;;;;6150524;23;20013;-79
2021/05/21 04:31:23;;;;;;;0.10;0.10;;;11.70;91.40;;;;;;6150421;23;20024;-80
2021/05/21 04:33:50;;;;;;;0.10;0.10;;;11.70;91.10;;;;;;6150432;23;20005;-80
2021/05/21 04:36:16;;;;;;;0.10;0.10;;;11.90;90.80;;;;;;6149068;23;20508;-79
2021/05/21 04:38:42;;;;;;;0.10;0.10;;;12.00;91.10;;;;;;6150516;23;20007;-80
2021/05/21 04:41:07;;;;;;;0.10;0.10;;;12.10;91.30;;;;;;6150712;23;20012;-80
2021/05/21 04:43:33;;;;;;;0.10;0.10;;;12.10;91.20;;;;;;6148717;23;20028;-80
2021/05/21 04:46:01;;;;;;;0.10;0.10;;;12.20;91.20;;;;;;6150823;23;20084;-80
2021/05/21 04:48:26;;;;;;;;;;;12.20;91.70;;;;;;6150968;23;20010;-80
2021/05/21 04:50:53;;;;;;;0.10;0.10;;;12.20;91.90;;;;;;6150686;23;20383;-81
2021/05/21 04:53:19;;;;;;;0.10;0.10;;;12.30;91.70;;;;;;6149868;23;20084;-81
2021/05/21 04:55:46;;;;;;;0.10;0.10;;;12.20;91.60;;;;;;6148668;23;20464;-81
2021/05/21 04:58:12;;;;;;;0.10;0.10;;;12.30;91.70;;;;;;6149636;23;20002;-80
2021/05/21 05:00:39;;;;;;;0.10;0.10;;;12.30;91.50;;;;;;6151196;23;20016;-84
2021/05/21 05:03:07;;;;;;;0.10;0.10;;;12.30;91.70;;;;;;6150988;23;20092;-82
2021/05/21 05:05:33;;;;;;;0.10;0.10;;;12.30;92.00;;;;;;6150982;23;20009;-82
2021/05/21 05:07:59;;;;;;;0.10;0.10;;;12.30;91.80;;;;;;6149005;23;20504;-83
2021/05/21 05:10:25;;;;;;;0.10;0.10;;;12.30;93.40;;;;;;6150268;23;20037;-81
2021/05/21 05:12:52;;;;;;;0.10;0.10;;;12.30;93.20;;;;;;6150470;23;20006;-80
2021/05/21 05:15:19;;;;;;;0.10;0.10;;;12.30;92.90;;;;;;6150006;23;20009;-79
2021/05/21 05:17:48;;;;;;;0.10;0.10;;;12.30;93.80;;;;;;6150010;23;20006;-80
2021/05/21 05:20:15;;;;;;;0.10;0.10;;;12.30;93.50;;;;;;6150013;23;20141;-82
2021/05/21 05:22:41;;;;;;;0.10;0.10;;;12.40;92.80;;;;;;6149320;23;20403;-82
2021/05/21 05:25:07;;;;;;;0.10;0.10;;;12.30;93.60;;;;;;6149617;23;20001;-80
2021/05/21 05:27:34;;;;;;;0.10;0.10;;;12.40;94.40;;;;;;6149499;23;20056;-82
2021/05/21 05:30:00;;;;;;;0.10;0.10;;;12.50;93.60;;;;;;6150877;23;20028;-83
2021/05/21 05:32:26;;;;;;;0.10;0.10;;;12.50;93.30;;;;;;6149626;23;20425;-83
2021/05/21 05:34:51;;;;;;;0.10;0.10;;;12.50;92.80;;;;;;6149635;23;20097;-81
2021/05/21 05:37:18;;;;;;;0.10;0.10;;;12.70;92.80;;;;;;6149991;23;20018;-82
2021/05/21 05:39:43;;;;;;;0.10;0.10;;;12.70;93.10;;;;;;6153964;23;20436;-88
2021/05/21 05:42:09;;;;;;;0.10;0.10;;;12.80;93.40;;;;;;6153982;23;19998;-85
2021/05/21 05:44:35;;;;;;;0.13;0.13;;;12.90;92.30;;;;;;6155302;23;20341;-86
2021/05/21 05:47:01;;;;;;;0.10;0.10;;;13.00;92.70;;;;;;6152009;23;20004;-83
2021/05/21 05:49:26;;;;;;;0.10;0.10;;;13.10;92.50;;;;;;6152556;23;20083;-86
2021/05/21 05:51:52;;;;;;;0.10;0.10;;;13.20;92.50;;;;;;6151014;23;20010;-83
2021/05/21 05:54:18;;;;;;;0.10;0.10;;;13.30;91.40;;;;;;6152353;23;20057;-85
2021/05/21 05:56:43;;;;;;;0.10;0.10;;;13.40;92.00;;;;;;6150979;23;20008;-82
2021/05/21 05:59:09;;;;;;;0.10;0.10;;;13.50;91.40;;;;;;6149844;23;20004;-79
2021/05/21 06:01:35;;;;;;;0.10;0.10;;;13.70;90.80;;;;;;6148771;23;20000;-83
2021/05/21 06:04:00;;;;;;;0.10;0.10;;;13.80;91.10;;;;;;6148652;23;20009;-79
2021/05/21 06:06:26;;;;;;;0.10;0.10;;;14.00;91.00;;;;;;6149549;23;20047;-83
2021/05/21 06:08:52;;;;;;;0.10;0.10;;;14.10;90.00;;;;;;6149619;23;20440;-82
2021/05/21 06:11:18;;;;;;;0.10;0.10;;;14.20;91.40;;;;;;6149421;23;20016;-83
2021/05/21 06:13:43;;;;;;;0.10;0.10;;;14.30;89.00;;;;;;6150059;23;20085;-86
2021/05/21 06:16:09;;;;;;;0.10;0.10;;;14.40;89.90;;;;;;6152447;23;20005;-85
2021/05/21 06:18:35;;;;;;;0.10;0.10;;;14.60;90.20;;;;;;6150907;23;20005;-86
2021/05/21 06:21:00;;;;;;;0.10;0.10;;;14.80;90.30;;;;;;6150485;23;20036;-84
2021/05/21 06:23:26;;;;;;;0.10;0.10;;;14.90;85.80;;;;;;6150383;23;20018;-84
2021/05/21 06:25:57;;;;;;;0.10;0.10;;;15.00;87.20;;;;;;6150364;23;20013;-81
2021/05/21 06:28:24;;;;;;;0.10;0.10;;;15.10;87.80;;;;;;6147912;23;20005;-82
2021/05/21 06:30:51;;;;;;;0.10;0.10;;;15.20;87.50;;;;;;6149480;23;20626;-81
2021/05/21 06:33:17;;;;;;;0.10;0.10;;;15.20;85.30;;;;;;6149913;23;20005;-82
2021/05/21 06:35:43;;;;;;;0.10;0.10;;;15.30;86.80;;;;;;6149722;23;20611;-80
2021/05/21 06:38:09;;;;;;;0.10;0.10;;;15.40;84.40;;;;;;6149598;23;20026;-80
2021/05/21 06:40:35;;;;;;;0.10;0.10;;;15.40;86.20;;;;;;6149405;23;20482;-80
2021/05/21 06:43:10;;;;;;;0.10;0.10;;;15.60;87.30;;;;;;6148949;23;20520;-80
2021/05/21 06:45:37;;;;;;;0.10;0.10;;;15.70;88.70;;;;;;6149583;23;20006;-81
2021/05/21 06:48:03;;;;;;;0.10;0.10;;;15.80;88.70;;;;;;6147835;23;20009;-81
2021/05/21 06:50:29;;;;;;;0.10;0.10;;;15.90;87.20;;;;;;6149195;23;20132;-80
2021/05/21 06:52:54;;;;;;;0.10;0.10;;;16.00;87.90;;;;;;6148945;23;20366;-81
2021/05/21 06:55:20;;;;;;;0.10;0.10;;;16.00;88.80;;;;;;6149786;23;20350;-80
2021/05/21 06:57:46;;;;;;;0.10;0.10;;;16.20;88.60;;;;;;6149549;23;20460;-81
2021/05/21 07:00:12;;;;;;;0.05;0.05;;;16.30;90.40;;;;;;6149601;23;20006;-81
2021/05/21 07:02:38;;;;;;;0.10;0.10;;;16.40;88.60;;;;;;6149037;23;20004;-80
2021/05/21 07:05:04;;;;;;;0.10;0.10;;;16.40;85.80;;;;;;6149440;23;20013;-81
2021/05/21 07:07:31;;;;;;;0.10;0.10;;;16.70;84.70;;;;;;6142172;23;20298;-82
2021/05/21 07:09:57;;;;;;;0.10;0.10;;;16.90;83.90;;;;;;6145309;23;20016;-81
2021/05/21 07:12:23;;;;;;;0.10;0.10;;;17.00;84.50;;;;;;6147825;23;20089;-81
2021/05/21 07:14:48;;;;;;;0.10;0.10;;;17.10;83.50;;;;;;6147583;23;20370;-82
2021/05/21 07:17:14;;;;;;;0.20;0.20;;;17.20;82.00;;;;;;6148395;23;20006;-85
2021/05/21 07:19:40;;;;;;;0.10;0.10;;;17.50;78.50;;;;;;6147347;23;20025;-82
2021/05/21 07:22:06;;;;;;;0.10;0.10;;;17.70;80.20;;;;;;6148414;23;20014;-81
2021/05/21 07:24:33;;;;;;;0.10;0.10;;;17.90;79.60;;;;;;6149017;23;20009;-85
2021/05/21 07:26:59;;;;;;;0.10;0.10;;;18.00;77.20;;;;;;6149572;23;20426;-82
2021/05/21 07:29:24;;;;;;;0.10;0.10;;;18.10;77.50;;;;;;6148401;23;20500;-83
2021/05/21 07:31:50;;;;;;;0.10;0.10;;;18.20;73.60;;;;;;6149094;23;20005;-83
2021/05/21 07:34:16;;;;;;;0.10;0.10;;;18.40;73.20;;;;;;6150577;23;20061;-82
2021/05/21 07:36:41;;;;;;;0.10;0.10;;;18.60;64.30;;;;;;6150407;23;20442;-83
2021/05/21 07:39:07;;;;;;;0.10;0.10;;;18.80;65.10;;;;;;6149800;23;20013;-83
2021/05/21 07:41:33;;;;;;;0.10;0.10;;;19.00;65.50;;;;;;6150541;23;20008;-82
2021/05/21 07:43:59;;;;;;;0.10;0.10;;;19.10;69.90;;;;;;6150572;23;20010;-82
2021/05/21 07:46:26;;;;;;;0.10;0.10;;;19.20;64.80;;;;;;6150790;23;20088;-82
2021/05/21 07:48:52;;;;;;;;;;;19.30;66.50;;;;;;6150831;23;20348;-83
2021/05/21 07:51:19;;;;;;;0.10;0.10;;;19.50;62.70;;;;;;6150435;23;19913;-81
2021/05/21 07:53:45;;;;;;;0.10;0.10;;;19.70;68.20;;;;;;6151419;23;20012;-84
2021/05/21 07:56:11;;;;;;;0.10;0.10;;;20.00;67.40;;;;;;6151740;23;20013;-82
2021/05/21 07:58:36;;;;;;;0.10;0.10;;;20.10;65.40;;;;;;6149834;23;20020;-76
2021/05/21 08:01:04;;;;;;;0.40;0.40;;;20.30;60.00;;;;;;6150687;23;20001;-77
2021/05/21 08:03:29;;;;;;;0.10;0.10;;;20.40;56.50;;;;;;6150673;23;20040;-77
2021/05/21 08:05:58;;;;;;;0.10;0.10;;;20.40;59.30;;;;;;6150392;23;20006;-77
2021/05/21 08:08:24;;;;;;;0.10;0.10;;;20.50;61.90;;;;;;6150690;23;20006;-76
2021/05/21 08:10:51;;;;;;;0.10;0.10;;;20.70;57.10;;;;;;6150339;23;20172;-77
2021/05/21 08:13:17;;;;;;;0.10;0.10;;;20.80;57.00;;;;;;6149435;23;20013;-77
2021/05/21 08:15:43;;;;;;;0.10;0.10;;;21.00;61.30;;;;;;6148637;23;20005;-77
2021/05/21 08:18:09;;;;;;;0.10;0.10;;;21.20;59.80;;;;;;6150194;23;19997;-77
2021/05/21 08:20:35;;;;;;;0.10;0.10;;;21.40;55.10;;;;;;6150297;23;20452;-77
2021/05/21 08:23:00;;;;;;;0.10;0.10;;;21.50;56.90;;;;;;6149406;23;20014;-77
2021/05/21 08:25:26;;;;;;;0.10;0.10;;;21.70;57.40;;;;;;6149494;23;20033;-77
2021/05/21 08:27:53;;;;;;;0.10;0.10;;;22.00;56.40;;;;;;6149840;23;20730;-77
2021/05/21 08:30:21;;;;;;;0.10;0.10;;;22.30;55.50;;;;;;6150017;23;20068;-77
2021/05/21 08:32:49;;;;;;;0.10;0.10;;;22.50;58.10;;;;;;6149573;23;20055;-78
2021/05/21 08:35:15;;;;;;;0.10;0.10;;;22.70;53.90;;;;;;6148291;23;20010;-78
2021/05/21 08:37:41;;;;;;;0.10;0.10;;;22.50;54.80;;;;;;6149659;23;20010;-78
2021/05/21 08:40:08;;;;;;;0.20;0.20;;;22.50;53.80;;;;;;6148307;23;20010;-77
2021/05/21 08:42:36;;;;;;;;;;;22.60;55.10;;;;;;6148808;23;20006;-78
2021/05/21 08:45:02;;;;;;;;;;;22.20;51.60;;;;;;6149773;23;19996;-77
2021/05/21 08:47:32;;;;;;;0.10;0.10;;;22.00;51.10;;;;;;6149566;23;20283;-77
2021/05/21 08:50:05;;;;;;;0.10;0.10;;;22.20;52.30;;;;;;6149919;23;20009;-78
2021/05/21 08:52:31;;;;;;;3.80;0.65;;;22.30;52.30;;;;;;6149568;23;20405;-77
2021/05/21 08:54:57;;;;;;;0.10;0.10;;;22.20;50.70;;;;;;6148281;23;20081;-77
2021/05/21 08:57:23;;;;;;;0.20;0.20;;;22.10;53.80;;;;;;6149732;23;20006;-77
2021/05/21 08:59:49;;;;;;;0.25;0.25;;;22.30;52.90;;;;;;6150133;23;20325;-77
2021/05/21 09:02:23;;;;;;;0.20;0.20;;;22.20;52.20;;;;;;6147851;23;20016;-78
2021/05/21 09:04:55;;;;;;;0.10;0.10;;;22.20;52.00;;;;;;6149522;23;20006;-78
2021/05/21 09:07:32;;;;;;;0.20;0.20;;;22.00;54.20;;;;;;6148939;23;20077;-78
2021/05/21 09:10:05;;;;;;;0.30;0.30;;;21.70;54.30;;;;;;6150126;23;20006;-76
2021/05/21 09:12:42;;;;;;;0.10;0.10;;;21.60;53.00;;;;;;6147615;23;20009;-77
2021/05/21 09:15:09;;;;;;;0.10;0.10;;;21.60;53.20;;;;;;6148905;23;21307;-77
2021/05/21 09:17:35;;;;;;;0.10;0.10;;;21.80;52.60;;;;;;6147639;23;20028;-79
2021/05/21 09:20:03;;;;;;;0.20;0.20;;;22.00;51.60;;;;;;6146270;23;20006;-77
2021/05/21 09:22:29;;;;;;;0.10;0.10;;;22.00;53.00;;;;;;6146167;23;20017;-77
2021/05/21 09:24:55;;;;;;;0.10;0.10;;;22.30;52.30;;;;;;6148254;23;20029;-78
2021/05/21 09:27:21;;;;;;;0.10;0.10;;;22.30;53.30;;;;;;6147609;23;20005;-78
2021/05/21 09:29:48;;;;;;;0.10;0.10;;;22.50;53.30;;;;;;6146935;23;20009;-77
2021/05/21 09:32:29;;;;;;;0.10;0.10;;;22.80;52.30;;;;;;6147126;23;20002;-77
2021/05/21 09:35:05;;;;;;;4.07;0.30;;;23.20;51.80;;;;;;6148529;23;20487;-78
2021/05/21 09:37:32;;;;;;;17.33;0.52;;;23.20;51.30;;;;;;6149179;23;20060;-77
2021/05/21 09:40:15;;;;;;;0.10;0.10;;;23.40;51.00;;;;;;6149251;23;20002;-77
2021/05/21 09:42:48;;;;;;;0.10;0.10;;;23.40;54.20;;;;;;6147590;23;20006;-78
2021/05/21 09:45:22;;;;;;;0.10;0.10;;;23.70;52.00;;;;;;6149256;23;20235;-78
2021/05/21 09:48:00;;;;;;;0.10;0.10;;;23.70;49.50;;;;;;6149079;23;20001;-77
2021/05/21 09:50:48;;;;;;;0.10;0.10;;;23.60;53.80;;;;;;6149604;23;20071;-77
2021/05/21 09:53:16;;;;;;;0.20;0.20;;;23.60;52.60;;;;;;6149181;23;20044;-77
2021/05/21 09:55:53;;;;;;;1.23;0.63;;;23.20;51.40;;;;;;6149382;23;20009;-78
2021/05/21 09:58:31;;;;;;;0.60;0.50;;;23.00;54.80;;;;;;6148901;23;20464;-77
2021/05/21 10:01:14;;;;;;;0.10;0.10;;;23.00;54.30;;;;;;6149474;23;20001;-77
2021/05/21 10:03:45;;;;;;;0.10;0.10;;;23.00;56.00;;;;;;6148923;23;20014;-75
2021/05/21 10:06:12;;;;;;;0.10;0.10;;;23.00;56.90;;;;;;6149395;23;20468;-78
2021/05/21 10:08:39;;;;;;;0.10;0.10;;;23.20;58.20;;;;;;6147013;23;20009;-76
2021/05/21 10:11:06;;;;;;;0.10;0.10;;;23.10;56.70;;;;;;6148915;23;20021;-78
2021/05/21 10:13:32;;;;;;;;;;;23.10;58.70;;;;;;6148101;23;20006;-79
2021/05/21 10:16:02;;;;;;;0.10;0.10;;;22.90;59.50;;;;;;6150568;23;19979;-79
2021/05/21 10:18:29;;;;;;;0.10;0.10;;;23.00;57.80;;;;;;6149874;23;20001;-78
2021/05/21 10:20:56;;;;;;;0.10;0.10;;;23.10;58.10;;;;;;6149033;23;20021;-78
2021/05/21 10:23:30;;;;;;;0.10;0.10;;;23.20;57.20;;;;;;6148700;23;20018;-79
2021/05/21 10:25:58;;;;;;;0.10;0.10;;;23.00;58.50;;;;;;6149310;23;20009;-79
2021/05/21 10:28:28;;;;;;;0.40;0.40;;;22.90;57.30;;;;;;6149494;23;20013;-80
2021/05/21 10:31:00;;;;;;;0.10;0.10;;;22.70;59.10;;;;;;6146745;23;20013;-78
2021/05/21 10:33:35;;;;;;;0.10;0.10;;;22.60;56.70;;;;;;6145943;23;20608;-79
2021/05/21 10:36:23;;;;;;;0.10;0.10;;;22.60;56.80;;;;;;6145810;23;20016;-79
2021/05/21 10:39:12;;;;;;;0.10;0.10;;;23.00;59.50;;;;;;6148309;23;20067;-78
2021/05/21 10:41:59;;;;;;;0.10;0.10;;;23.30;53.30;;;;;;6148543;23;20534;-78
2021/05/21 10:44:38;;;;;;;1.13;0.30;;;23.40;56.80;;;;;;6148162;23;20010;-77
2021/05/21 10:47:16;;;;;;;0.10;0.10;;;23.60;55.60;;;;;;6148932;23;20443;-76
2021/05/21 10:50:02;;;;;;;0.10;0.10;;;23.70;58.30;;;;;;6148707;23;20009;-77
2021/05/21 10:53:20;;;;;;;0.10;0.10;;;24.00;54.30;;;;;;6148993;23;20013;-77
2021/05/21 10:55:54;;;;;;;0.10;0.10;;;24.70;57.00;;;;;;6140914;23;20397;-76
2021/05/21 10:58:27;;;;;;;0.10;0.10;;;25.30;55.50;;;;;;6148429;23;20006;-77
2021/05/21 11:01:12;;;;;;;0.20;0.20;;;25.40;50.50;;;;;;6148637;23;20001;-77
2021/05/21 11:03:57;;;;;;;0.80;0.32;;;24.80;51.60;;;;;;6148268;23;20326;-77
2021/05/21 11:06:27;;;;;;;2.83;0.32;;;23.70;54.40;;;;;;6149016;23;20373;-77
2021/05/21 11:09:06;;;;;;;0.20;0.20;;;22.70;52.30;;;;;;6150149;23;20006;-77
2021/05/21 11:12:03;;;;;;;0.30;0.30;;;22.20;52.90;;;;;;6150033;23;20045;-77
2021/05/21 11:14:30;;;;;;;0.30;0.30;;;22.00;56.80;;;;;;6150450;23;20315;-77
2021/05/21 11:17:06;;;;;;;0.88;0.20;;;21.90;56.70;;;;;;6150479;23;20013;-76
2021/05/21 11:19:33;;;;;;;0.93;0.93;;;22.20;58.20;;;;;;6150510;23;20001;-75
2021/05/21 11:22:22;;;;;;;0.20;0.20;;;22.60;56.00;;;;;;6150498;23;20013;-76
2021/05/21 11:24:51;;;;;;;0.50;0.50;;;22.70;54.10;;;;;;6150740;23;20009;-76
2021/05/21 11:27:17;;;;;;;0.22;0.22;;;22.90;54.10;;;;;;6150462;23;20002;-76
2021/05/21 11:29:49;;;;;;;0.98;0.28;;;22.90;55.50;;;;;;6150556;23;20068;-77
2021/05/21 11:32:16;;;;;;;0.95;0.68;;;22.80;56.10;;;;;;6150589;23;20006;-77
2021/05/21 11:34:43;;;;;;;0.60;0.60;;;22.20;56.70;;;;;;6150560;23;20006;-77
2021/05/21 11:37:09;;;;;;;1.55;0.50;;;21.60;57.50;;;;;;6150835;23;20005;-76
2021/05/21 11:39:37;;;;;;;0.20;0.20;;;21.30;59.00;;;;;;6150604;23;20013;-77
2021/05/21 11:42:05;;;;;;;3.35;0.63;;;21.20;59.10;;;;;;6150478;23;20017;-76
2021/05/21 11:44:31;;;;;;;0.47;0.40;;;21.20;60.20;;;;;;6150442;23;20005;-77
2021/05/21 11:47:00;;;;;;;0.93;0.60;;;21.30;60.20;;;;;;6148884;23;20090;-77
2021/05/21 11:49:26;;;;;;;0.90;0.60;;;21.60;61.80;;;;;;6150080;23;20340;-77
2021/05/21 11:52:04;;;;;;;1.55;1.05;;;22.40;64.70;;;;;;6148912;23;20017;-76
2021/05/21 11:54:31;;;;;;;0.40;0.30;;;23.10;60.30;;;;;;6150157;23;20143;-78
2021/05/21 11:56:58;;;;;;;9.27;0.40;;;23.20;60.50;;;;;;6150541;23;20009;-77
2021/05/21 11:59:24;;;;;;;0.30;0.30;;;22.90;61.30;;;;;;6150235;23;20084;-79
2021/05/21 12:01:52;;;;;;;0.50;0.50;;;22.60;61.30;;;;;;6150238;23;20001;-78
2021/05/21 12:04:20;;;;;;;1.73;1.10;;;23.50;59.80;;;;;;6150077;23;20012;-79
2021/05/21 12:06:50;;;;;;;0.50;0.50;;;25.40;54.90;;;;;;6150258;23;20064;-77
2021/05/21 12:09:26;;;;;;;4.13;0.82;;;26.50;53.30;;;;;;6149636;23;20005;-81
2021/05/21 12:11:59;;;;;;;0.77;0.68;;;28.30;48.60;;;;;;6150177;23;20017;-79
2021/05/21 12:14:29;;;;;;;0.85;0.70;;;28.90;48.20;;;;;;6148782;23;20370;-86
2021/05/21 12:16:57;;;;;;;0.60;0.60;;;29.10;46.50;;;;;;6150912;23;20009;-79
2021/05/21 12:19:24;;;;;;;1.10;0.68;;;28.80;47.30;;;;;;6148678;23;20024;-79
2021/05/21 12:21:52;;;;;;;0.60;0.40;;;29.30;46.60;;;;;;6150665;23;20009;-78
2021/05/21 12:24:20;;;;;;;0.82;0.65;;;30.00;46.10;;;;;;6150711;23;20419;-76
2021/05/21 12:26:48;;;;;;;0.30;0.30;;;31.40;43.80;;;;;;6151134;23;20071;-86
2021/05/21 12:29:16;;;;;;;0.80;0.50;;;30.60;43.50;;;;;;6151041;23;20013;-81
2021/05/21 12:31:46;;;;;;;1.45;0.70;;;30.70;43.40;;;;;;6150789;23;20100;-79
2021/05/21 12:34:16;;;;;;;0.88;0.88;;;32.20;40.70;;;;;;6150387;23;20392;-82
2021/05/21 12:36:42;;;;;;;0.40;0.40;;;33.30;41.00;;;;;;6149193;23;20080;-82
2021/05/21 12:39:08;;;;;;;;;;;33.80;40.40;;;;;;6150744;23;20032;-82
2021/05/21 12:41:39;;;;;;;0.55;0.38;;;34.20;38.40;;;;;;6149104;23;19912;-79
2021/05/21 12:44:09;;;;;;;0.50;0.40;;;32.50;39.90;;;;;;6149266;23;20028;-82
2021/05/21 12:47:00;;;;;;;0.20;0.20;;;32.60;39.00;;;;;;6150339;23;20041;-82
2021/05/21 12:49:30;;;;;;;0.55;0.32;;;32.10;38.30;;;;;;6142626;23;20013;-78
2021/05/21 12:52:02;;;;;;;0.10;0.10;;;31.50;41.20;;;;;;6148082;23;20261;-80
2021/05/21 12:54:29;;;;;;;0.30;0.30;;;30.80;42.70;;;;;;6148719;23;20001;-82